sensor_id;sensor_type;location;lat;lon;timestamp;P1;durP1;ratioP1;P2;durP2;ratioP2
30466;SDS011;17258;52.560;13.046;2024-03-02T00:02:46;22.35;;;16.15;;
30466;SDS011;17258;52.560;13.046;2024-03-02T00:12:49;17.60;;;15.90;;
30466;SDS011;17258;52.560;13.046;2024-03-02T00:22:49;18.30;;;16.27;;
30466;SDS011;17258;52.560;13.046;2024-03-02T00:32:50;15.13;;;13.60;;
30466;SDS011;17258;52.560;13.046;2024-03-02T00:42:53;20.08;;;17.35;;
30466;SDS011;17258;52.560;13.046;2024-03-02T01:04:09;20.27;;;15.07;;
30466;SDS011;17258;52.560;13.046;2024-03-02T01:14:11;21.05;;;15.90;;
30466;SDS011;17258;52.560;13.046;2024-03-02T01:24:11;16.43;;;13.53;;
30466;SDS011;17258;52.560;13.046;2024-03-02T01:34:13;14.90;;;13.10;;
30466;SDS011;17258;52.560;13.046;2024-03-02T01:44:13;14.70;;;13.27;;
30466;SDS011;17258;52.560;13.046;2024-03-02T01:54:14;14.73;;;13.27;;
30466;SDS011;17258;52.560;13.046;2024-03-02T02:04:15;17.92;;;14.32;;
30466;SDS011;17258;52.560;13.046;2024-03-02T02:14:15;16.50;;;14.77;;
30466;SDS011;17258;52.560;13.046;2024-03-02T02:24:16;14.90;;;13.13;;
30466;SDS011;17258;52.560;13.046;2024-03-02T02:34:17;17.07;;;15.17;;
30466;SDS011;17258;52.560;13.046;2024-03-02T02:44:19;17.60;;;14.38;;
30466;SDS011;17258;52.560;13.046;2024-03-02T02:54:20;15.63;;;13.25;;
30466;SDS011;17258;52.560;13.046;2024-03-02T03:04:21;19.10;;;16.10;;
30466;SDS011;17258;52.560;13.046;2024-03-02T03:14:21;19.87;;;16.30;;
30466;SDS011;17258;52.560;13.046;2024-03-02T03:24:22;18.85;;;14.85;;
30466;SDS011;17258;52.560;13.046;2024-03-02T03:34:22;14.83;;;13.37;;
30466;SDS011;17258;52.560;13.046;2024-03-02T03:44:23;19.00;;;15.67;;
30466;SDS011;17258;52.560;13.046;2024-03-02T03:54:24;19.27;;;14.90;;
30466;SDS011;17258;52.560;13.046;2024-03-02T04:04:24;15.97;;;14.40;;
30466;SDS011;17258;52.560;13.046;2024-03-02T04:14:25;19.73;;;15.30;;
30466;SDS011;17258;52.560;13.046;2024-03-02T04:24:26;18.73;;;16.17;;
30466;SDS011;17258;52.560;13.046;2024-03-02T04:34:26;17.63;;;14.77;;
30466;SDS011;17258;52.560;13.046;2024-03-02T04:44:27;17.07;;;12.43;;
30466;SDS011;17258;52.560;13.046;2024-03-02T04:54:28;20.73;;;15.37;;
30466;SDS011;17258;52.560;13.046;2024-03-02T05:04:28;18.70;;;16.80;;
30466;SDS011;17258;52.560;13.046;2024-03-02T05:14:29;15.07;;;13.53;;
30466;SDS011;17258;52.560;13.046;2024-03-02T05:24:30;14.60;;;13.33;;
30466;SDS011;17258;52.560;13.046;2024-03-02T05:34:30;14.40;;;12.95;;
30466;SDS011;17258;52.560;13.046;2024-03-02T05:44:32;18.08;;;15.35;;
30466;SDS011;17258;52.560;13.046;2024-03-02T05:54:33;15.80;;;14.13;;
30466;SDS011;17258;52.560;13.046;2024-03-02T06:04:34;20.55;;;15.18;;
30466;SDS011;17258;52.560;13.046;2024-03-02T06:14:35;18.33;;;16.38;;
30466;SDS011;17258;52.560;13.046;2024-03-02T06:24:36;15.75;;;13.85;;
30466;SDS011;17258;52.560;13.046;2024-03-02T06:34:37;17.67;;;15.63;;
30466;SDS011;17258;52.560;13.046;2024-03-02T06:44:38;22.60;;;18.60;;
30466;SDS011;17258;52.560;13.046;2024-03-02T06:54:39;33.13;;;30.27;;
30466;SDS011;17258;52.560;13.046;2024-03-02T07:04:39;28.63;;;25.85;;
30466;SDS011;17258;52.560;13.046;2024-03-02T07:14:40;27.37;;;25.03;;
30466;SDS011;17258;52.560;13.046;2024-03-02T07:25:00;24.38;;;21.15;;
30466;SDS011;17258;52.560;13.046;2024-03-02T07:35:00;27.60;;;24.55;;
30466;SDS011;17258;52.560;13.046;2024-03-02T07:45:01;24.90;;;22.40;;
30466;SDS011;17258;52.560;13.046;2024-03-02T07:55:02;30.30;;;27.60;;
30466;SDS011;17258;52.560;13.046;2024-03-02T08:05:03;28.98;;;26.45;;
30466;SDS011;17258;52.560;13.046;2024-03-02T08:15:04;29.77;;;26.63;;
30466;SDS011;17258;52.560;13.046;2024-03-02T08:25:06;30.13;;;27.23;;
30466;SDS011;17258;52.560;13.046;2024-03-02T08:35:08;30.55;;;27.77;;
30466;SDS011;17258;52.560;13.046;2024-03-02T08:45:09;32.53;;;29.40;;
30466;SDS011;17258;52.560;13.046;2024-03-02T08:55:09;34.88;;;31.15;;
30466;SDS011;17258;52.560;13.046;2024-03-02T09:05:11;32.38;;;29.10;;
30466;SDS011;17258;52.560;13.046;2024-03-02T09:15:12;35.08;;;31.80;;
30466;SDS011;17258;52.560;13.046;2024-03-02T09:25:13;34.37;;;31.20;;
30466;SDS011;17258;52.560;13.046;2024-03-02T09:35:13;35.03;;;31.88;;
30466;SDS011;17258;52.560;13.046;2024-03-02T09:45:14;34.00;;;31.00;;
30466;SDS011;17258;52.560;13.046;2024-03-02T09:55:16;34.10;;;31.10;;
30466;SDS011;17258;52.560;13.046;2024-03-02T10:05:25;31.98;;;29.00;;
30466;SDS011;17258;52.560;13.046;2024-03-02T10:15:28;32.15;;;29.38;;
30466;SDS011;17258;52.560;13.046;2024-03-02T10:25:30;32.33;;;29.38;;
30466;SDS011;17258;52.560;13.046;2024-03-02T10:35:32;29.63;;;27.25;;
30466;SDS011;17258;52.560;13.046;2024-03-02T10:45:36;29.13;;;26.45;;
30466;SDS011;17258;52.560;13.046;2024-03-02T10:55:37;28.23;;;25.45;;
30466;SDS011;17258;52.560;13.046;2024-03-02T11:05:39;26.42;;;24.25;;
30466;SDS011;17258;52.560;13.046;2024-03-02T11:15:44;28.58;;;25.90;;
30466;SDS011;17258;52.560;13.046;2024-03-02T11:25:45;27.00;;;24.65;;
30466;SDS011;17258;52.560;13.046;2024-03-02T11:35:47;29.33;;;26.65;;
30466;SDS011;17258;52.560;13.046;2024-03-02T11:45:48;27.77;;;25.48;;
30466;SDS011;17258;52.560;13.046;2024-03-02T11:56:00;28.83;;;26.02;;
30466;SDS011;17258;52.560;13.046;2024-03-02T12:06:02;28.30;;;25.85;;
30466;SDS011;17258;52.560;13.046;2024-03-02T12:16:03;27.85;;;25.67;;
30466;SDS011;17258;52.560;13.046;2024-03-02T12:26:04;29.77;;;27.02;;
30466;SDS011;17258;52.560;13.046;2024-03-02T12:36:09;29.50;;;26.85;;
30466;SDS011;17258;52.560;13.046;2024-03-02T12:46:12;30.23;;;27.52;;
30466;SDS011;17258;52.560;13.046;2024-03-02T12:56:12;30.15;;;27.55;;
30466;SDS011;17258;52.560;13.046;2024-03-02T13:06:13;29.58;;;27.08;;
30466;SDS011;17258;52.560;13.046;2024-03-02T13:16:14;29.17;;;26.77;;
30466;SDS011;17258;52.560;13.046;2024-03-02T13:26:16;29.48;;;26.88;;
30466;SDS011;17258;52.560;13.046;2024-03-02T13:36:16;29.30;;;26.93;;
30466;SDS011;17258;52.560;13.046;2024-03-02T13:46:19;29.20;;;26.80;;
30466;SDS011;17258;52.560;13.046;2024-03-02T13:56:21;29.25;;;26.88;;
30466;SDS011;17258;52.560;13.046;2024-03-02T14:06:22;29.98;;;27.40;;
30466;SDS011;17258;52.560;13.046;2024-03-02T14:16:23;16.77;;;14.00;;
30466;SDS011;17258;52.560;13.046;2024-03-02T14:26:23;12.30;;;8.40;;
30466;SDS011;17258;52.560;13.046;2024-03-02T14:36:24;9.67;;;8.67;;
30466;SDS011;17258;52.560;13.046;2024-03-02T14:46:27;12.65;;;11.38;;
30466;SDS011;17258;52.560;13.046;2024-03-02T14:56:28;12.45;;;10.20;;
30466;SDS011;17258;52.560;13.046;2024-03-02T15:06:32;11.00;;;8.95;;
30466;SDS011;17258;52.560;13.046;2024-03-02T15:16:32;12.32;;;10.88;;
30466;SDS011;17258;52.560;13.046;2024-03-02T15:26:33;11.33;;;8.50;;
30466;SDS011;17258;52.560;13.046;2024-03-02T15:36:34;8.73;;;7.82;;
30466;SDS011;17258;52.560;13.046;2024-03-02T15:46:35;8.13;;;6.53;;
30466;SDS011;17258;52.560;13.046;2024-03-02T15:56:36;7.60;;;6.82;;
30466;SDS011;17258;52.560;13.046;2024-03-02T16:06:37;7.35;;;6.45;;
30466;SDS011;17258;52.560;13.046;2024-03-02T16:16:38;10.27;;;6.07;;
30466;SDS011;17258;52.560;13.046;2024-03-02T16:26:38;8.77;;;7.87;;
30466;SDS011;17258;52.560;13.046;2024-03-02T16:36:39;10.07;;;6.88;;
30466;SDS011;17258;52.560;13.046;2024-03-02T16:46:40;6.77;;;5.03;;
30466;SDS011;17258;52.560;13.046;2024-03-02T16:56:41;6.25;;;5.63;;
30466;SDS011;17258;52.560;13.046;2024-03-02T17:06:43;6.53;;;5.93;;
30466;SDS011;17258;52.560;13.046;2024-03-02T17:16:44;8.55;;;7.47;;
30466;SDS011;17258;52.560;13.046;2024-03-02T17:26:45;12.15;;;7.97;;
30466;SDS011;17258;52.560;13.046;2024-03-02T17:36:46;7.10;;;6.27;;
30466;SDS011;17258;52.560;13.046;2024-03-02T17:46:46;8.05;;;6.75;;
30466;SDS011;17258;52.560;13.046;2024-03-02T17:56:47;7.68;;;6.40;;
30466;SDS011;17258;52.560;13.046;2024-03-02T18:06:48;6.00;;;5.50;;
30466;SDS011;17258;52.560;13.046;2024-03-02T18:16:48;7.83;;;6.13;;
30466;SDS011;17258;52.560;13.046;2024-03-02T18:26:49;8.73;;;7.93;;
30466;SDS011;17258;52.560;13.046;2024-03-02T18:36:49;10.47;;;8.30;;
30466;SDS011;17258;52.560;13.046;2024-03-02T18:46:50;13.90;;;10.03;;
30466;SDS011;17258;52.560;13.046;2024-03-02T18:56:51;8.45;;;7.55;;
30466;SDS011;17258;52.560;13.046;2024-03-02T19:06:51;10.17;;;7.23;;
30466;SDS011;17258;52.560;13.046;2024-03-02T19:16:52;9.37;;;7.67;;
30466;SDS011;17258;52.560;13.046;2024-03-02T19:26:53;6.97;;;6.30;;
30466;SDS011;17258;52.560;13.046;2024-03-02T19:36:54;11.27;;;7.88;;
30466;SDS011;17258;52.560;13.046;2024-03-02T19:46:57;8.68;;;6.93;;
30466;SDS011;17258;52.560;13.046;2024-03-02T19:56:57;9.48;;;8.52;;
30466;SDS011;17258;52.560;13.046;2024-03-02T20:06:58;10.73;;;9.27;;
30466;SDS011;17258;52.560;13.046;2024-03-02T20:16:59;10.40;;;9.43;;
30466;SDS011;17258;52.560;13.046;2024-03-02T20:27:00;14.57;;;11.02;;
30466;SDS011;17258;52.560;13.046;2024-03-02T20:37:00;16.20;;;11.73;;
30466;SDS011;17258;52.560;13.046;2024-03-02T20:47:01;12.63;;;11.27;;
30466;SDS011;17258;52.560;13.046;2024-03-02T20:57:03;17.83;;;13.02;;
30466;SDS011;17258;52.560;13.046;2024-03-02T21:07:05;19.05;;;12.90;;
30466;SDS011;17258;52.560;13.046;2024-03-02T21:17:06;15.10;;;12.70;;
30466;SDS011;17258;52.560;13.046;2024-03-02T21:27:06;18.80;;;13.68;;
30466;SDS011;17258;52.560;13.046;2024-03-02T21:37:11;15.00;;;12.98;;
30466;SDS011;17258;52.560;13.046;2024-03-02T21:47:11;19.65;;;13.57;;
30466;SDS011;17258;52.560;13.046;2024-03-02T21:57:12;12.55;;;11.15;;
30466;SDS011;17258;52.560;13.046;2024-03-02T22:07:19;12.52;;;11.25;;
30466;SDS011;17258;52.560;13.046;2024-03-02T22:17:20;17.83;;;10.10;;
30466;SDS011;17258;52.560;13.046;2024-03-02T22:27:22;10.13;;;8.23;;
30466;SDS011;17258;52.560;13.046;2024-03-02T22:37:23;12.80;;;10.35;;
30466;SDS011;17258;52.560;13.046;2024-03-02T22:47:23;10.85;;;9.75;;
30466;SDS011;17258;52.560;13.046;2024-03-02T22:57:24;14.67;;;10.43;;
30466;SDS011;17258;52.560;13.046;2024-03-02T23:07:25;10.70;;;9.65;;
30466;SDS011;17258;52.560;13.046;2024-03-02T23:17:26;11.73;;;10.57;;
30466;SDS011;17258;52.560;13.046;2024-03-02T23:27:27;10.20;;;9.23;;
30466;SDS011;17258;52.560;13.046;2024-03-02T23:37:27;12.40;;;10.87;;
30466;SDS011;17258;52.560;13.046;2024-03-02T23:47:28;12.30;;;10.63;;
30466;SDS011;17258;52.560;13.046;2024-03-02T23:57:28;13.20;;;10.80;;
